createdAt,value
2019-02-17T00:01:53.366Z,100819.66
2019-02-17T00:04:30.785Z,100823.95
2019-02-17T00:07:16.015Z,100827.47
2019-02-17T00:09:53.393Z,100823.06
2019-02-17T00:12:32.243Z,100822.09
2019-02-17T00:17:50.637Z,100816.27
2019-02-17T00:20:38.753Z,100818.30
2019-02-17T00:23:18.269Z,100819.05
2019-02-17T00:26:10.803Z,100820.45
2019-02-17T00:28:59.422Z,100816.80
2019-02-17T00:31:34.803Z,100815.59
2019-02-17T00:34:07.195Z,100807.07
2019-02-17T00:36:40.329Z,100809.98
2019-02-17T00:39:12.188Z,100812.83
2019-02-17T00:41:46.984Z,100818.28
2019-02-17T00:44:13.961Z,100812.85
2019-02-17T00:46:42.028Z,100816.70
2019-02-17T00:49:08.957Z,100819.16
2019-02-17T00:51:35.874Z,100820.45
2019-02-17T00:54:02.856Z,100817.45
2019-02-17T00:56:30.134Z,100818.30
2019-02-17T00:58:57.086Z,100815.44
2019-02-17T01:01:24.350Z,100819.33
2019-02-17T01:03:51.691Z,100824.05
2019-02-17T01:06:19.735Z,100826.27
2019-02-17T01:08:46.716Z,100816.16
2019-02-17T01:11:13.960Z,100827.11
2019-02-17T01:13:41.317Z,100823.76
2019-02-17T01:16:08.573Z,100827.11
2019-02-17T01:18:35.533Z,100821.20
2019-02-17T01:21:02.769Z,100820.86
2019-02-17T01:23:30.055Z,100817.14
2019-02-17T01:25:57.293Z,100821.77
2019-02-17T01:28:24.272Z,100817.57
2019-02-17T01:30:51.154Z,100819.81
2019-02-17T01:33:18.073Z,100815.70
2019-02-17T01:35:45.071Z,100814.36
2019-02-17T01:38:12.035Z,100813.08
2019-02-17T01:40:38.982Z,100803.74
2019-02-17T01:43:06.207Z,100805.81
2019-02-17T01:45:33.441Z,100807.44
2019-02-17T01:48:00.337Z,100803.24
2019-02-17T01:50:27.272Z,100807.03
2019-02-17T01:52:54.505Z,100801.93
2019-02-17T01:55:21.398Z,100806.98
2019-02-17T01:57:48.341Z,100807.78
2019-02-17T02:00:15.253Z,100803.19
2019-02-17T02:02:42.577Z,100802.63
2019-02-17T02:05:09.490Z,100802.58
2019-02-17T02:07:36.470Z,100801.62
2019-02-17T02:10:03.453Z,100797.99
2019-02-17T02:12:30.489Z,100799.44
2019-02-17T02:14:57.474Z,100797.72
2019-02-17T02:17:24.464Z,100794.47
2019-02-17T02:19:51.452Z,100791.62
2019-02-17T02:22:18.412Z,100790.34
2019-02-17T02:24:45.718Z,100784.39
2019-02-17T02:27:12.685Z,100786.09
2019-02-17T02:29:41.539Z,100789.93
2019-02-17T02:32:08.906Z,100783.08
2019-02-17T02:34:35.926Z,100780.13
2019-02-17T02:37:02.891Z,100782.66
2019-02-17T02:39:29.819Z,100779.23
2019-02-17T02:41:56.770Z,100780.88
2019-02-17T02:44:23.709Z,100783.80
2019-02-17T02:46:50.612Z,100785.87
2019-02-17T02:49:17.961Z,100781.68
2019-02-17T02:51:44.913Z,100778.27
2019-02-17T02:54:12.120Z,100778.67
2019-02-17T02:56:39.101Z,100781.62
2019-02-17T02:59:06.461Z,100775.77
2019-02-17T03:01:33.462Z,100777.44
2019-02-17T03:04:00.398Z,100779.39
2019-02-17T03:06:27.706Z,100780.02
2019-02-17T03:08:54.642Z,100780.00
2019-02-17T03:11:21.887Z,100782.89
2019-02-17T03:13:48.832Z,100788.89
2019-02-17T03:16:15.782Z,100782.17
2019-02-17T03:18:43.035Z,100786.70
2019-02-17T03:21:09.935Z,100786.30
2019-02-17T03:23:36.876Z,100783.44
2019-02-17T03:26:06.938Z,100783.98
2019-02-17T03:28:34.184Z,100790.41
2019-02-17T03:31:01.455Z,100788.34
2019-02-17T03:33:28.431Z,100784.58
2019-02-17T03:35:57.291Z,100780.68
2019-02-17T03:38:25.209Z,100779.82
2019-02-17T03:40:52.514Z,100781.45
2019-02-17T03:43:19.777Z,100782.23
2019-02-17T03:45:47.038Z,100780.91
2019-02-17T03:48:14.249Z,100785.78
2019-02-17T03:50:41.670Z,100790.80
2019-02-17T03:53:08.633Z,100786.59
2019-02-17T03:55:35.566Z,100783.58
2019-02-17T03:58:02.856Z,100785.15
2019-02-17T04:00:30.108Z,100783.37
2019-02-17T04:02:57.114Z,100778.26
2019-02-17T04:05:24.319Z,100786.59
2019-02-17T04:07:51.284Z,100779.83
2019-02-17T04:10:18.238Z,100777.25
2019-02-17T04:12:46.471Z,100772.14
2019-02-17T04:15:13.379Z,100771.19
2019-02-17T04:17:40.359Z,100773.25
2019-02-17T04:20:07.305Z,100774.02
2019-02-17T04:22:34.600Z,100776.47
2019-02-17T04:25:01.544Z,100771.86
2019-02-17T04:27:28.439Z,100763.30
2019-02-17T04:29:55.718Z,100777.78
2019-02-17T04:32:23.061Z,100774.47
2019-02-17T04:34:50.054Z,100764.71
2019-02-17T04:37:17.250Z,100773.84
2019-02-17T04:39:45.220Z,100772.48
2019-02-17T04:42:12.212Z,100764.58
2019-02-17T04:44:39.176Z,100764.22
2019-02-17T04:47:06.475Z,100766.31
2019-02-17T04:49:33.375Z,100768.59
2019-02-17T04:52:00.314Z,100772.41
2019-02-17T04:54:27.207Z,100776.98
2019-02-17T04:56:54.181Z,100773.41
2019-02-17T04:59:21.190Z,100774.79
2019-02-17T05:01:48.486Z,100772.30
2019-02-17T05:04:15.439Z,100778.45
2019-02-17T05:06:43.483Z,100770.81
2019-02-17T05:09:10.417Z,100771.51
2019-02-17T05:11:37.689Z,100778.70
2019-02-17T05:14:04.952Z,100780.50
2019-02-17T05:16:31.831Z,100785.08
2019-02-17T05:18:58.713Z,100779.20
2019-02-17T05:21:25.591Z,100783.28
2019-02-17T05:23:52.510Z,100780.33
2019-02-17T05:26:19.789Z,100784.91
2019-02-17T05:28:46.750Z,100781.98
2019-02-17T05:31:13.647Z,100784.11
2019-02-17T05:33:40.902Z,100786.34
2019-02-17T05:36:07.873Z,100788.99
2019-02-17T05:38:34.849Z,100789.86
2019-02-17T05:41:02.149Z,100787.77
2019-02-17T05:43:29.115Z,100788.66
2019-02-17T05:45:56.121Z,100781.86
2019-02-17T05:48:23.425Z,100783.88
2019-02-17T05:50:50.414Z,100788.53
2019-02-17T05:53:17.441Z,100786.37
2019-02-17T05:55:44.368Z,100790.06
2019-02-17T05:58:11.696Z,100792.28
2019-02-17T06:00:40.514Z,100787.17
2019-02-17T06:03:07.863Z,100796.79
2019-02-17T06:05:34.822Z,100795.96
2019-02-17T06:08:01.783Z,100792.98
2019-02-17T06:10:28.724Z,100795.59
2019-02-17T06:12:55.671Z,100794.53
2019-02-17T06:15:22.978Z,100798.67
2019-02-17T06:17:50.349Z,100801.60
2019-02-17T06:20:17.278Z,100803.59
2019-02-17T06:22:44.527Z,100807.73
2019-02-17T06:25:11.782Z,100807.77
2019-02-17T06:27:39.078Z,100811.48
2019-02-17T06:30:06.086Z,100811.98
2019-02-17T06:32:33.347Z,100815.97
2019-02-17T06:35:00.370Z,100824.09
2019-02-17T06:37:29.236Z,100832.52
2019-02-17T06:39:58.070Z,100823.77
2019-02-17T06:42:25.314Z,100828.44
2019-02-17T06:44:52.240Z,100825.12
2019-02-17T06:47:19.283Z,100826.05
2019-02-17T06:49:47.197Z,100825.25
2019-02-17T06:52:14.158Z,100825.30
2019-02-17T06:54:41.385Z,100825.34
2019-02-17T06:57:08.764Z,100820.94
2019-02-17T06:59:35.795Z,100824.66
2019-02-17T07:02:03.048Z,100824.23
2019-02-17T07:04:30.301Z,100820.37
2019-02-17T07:06:57.255Z,100821.85
2019-02-17T07:09:24.574Z,100825.80
2019-02-17T07:11:51.627Z,100824.75
2019-02-17T07:14:18.903Z,100826.61
2019-02-17T07:16:46.187Z,100826.02
2019-02-17T07:19:13.349Z,100825.84
2019-02-17T07:21:40.405Z,100831.60
2019-02-17T07:24:07.918Z,100830.91
2019-02-17T07:26:34.915Z,100828.48
2019-02-17T07:29:03.589Z,100831.03
2019-02-17T07:31:35.031Z,100831.51
2019-02-17T07:33:59.069Z,100829.59
2019-02-17T07:36:26.442Z,100827.20
2019-02-17T07:38:53.382Z,100832.34
2019-02-17T07:41:20.375Z,100838.73
2019-02-17T07:43:47.343Z,100836.78
2019-02-17T07:46:14.611Z,100839.80
2019-02-17T07:48:41.881Z,100837.80
2019-02-17T07:51:08.827Z,100833.36
2019-02-17T07:53:36.279Z,100831.34
2019-02-17T07:56:03.262Z,100833.17
2019-02-17T07:58:30.513Z,100829.84
2019-02-17T08:00:57.501Z,100824.33
2019-02-17T08:03:24.746Z,100830.68
2019-02-17T08:05:51.702Z,100827.36
2019-02-17T08:08:19.629Z,100829.94
2019-02-17T08:10:46.508Z,100831.64
2019-02-17T08:13:13.394Z,100830.48
2019-02-17T08:15:40.265Z,100827.61
2019-02-17T08:18:07.487Z,100828.92
2019-02-17T08:20:37.569Z,100819.23
2019-02-17T08:23:07.421Z,100820.11
2019-02-17T08:25:34.318Z,100819.36
2019-02-17T08:28:01.483Z,100816.86
2019-02-17T08:30:28.452Z,100810.56
2019-02-17T08:32:55.700Z,100812.69
2019-02-17T08:35:22.718Z,100808.50
2019-02-17T08:37:49.703Z,100810.20
2019-02-17T08:40:16.752Z,100804.35
2019-02-17T08:42:43.978Z,100804.02
2019-02-17T08:45:10.982Z,100809.52
2019-02-17T08:47:38.014Z,100804.05
2019-02-17T08:50:05.429Z,100801.95
2019-02-17T08:52:32.321Z,100811.72
2019-02-17T08:54:59.626Z,100808.78
2019-02-17T08:57:26.874Z,100807.13
2019-02-17T08:59:53.790Z,100804.59
2019-02-17T09:02:21.230Z,100803.74
2019-02-17T09:04:48.154Z,100799.13
2019-02-17T09:07:15.120Z,100799.14
2019-02-17T09:09:42.002Z,100802.95
2019-02-17T09:12:09.318Z,100799.97
2019-02-17T09:14:36.676Z,100802.97
2019-02-17T09:17:04.003Z,100802.14
2019-02-17T09:19:31.921Z,100798.40
2019-02-17T09:21:59.185Z,100804.37
2019-02-17T09:24:33.519Z,100801.00
2019-02-17T09:27:00.477Z,100794.70
2019-02-17T09:29:27.429Z,100800.66
2019-02-17T09:31:54.377Z,100797.27
2019-02-17T09:34:21.533Z,100796.45
2019-02-17T09:36:48.484Z,100797.27
2019-02-17T09:39:15.375Z,100795.59
2019-02-17T09:41:42.328Z,100793.95
2019-02-17T09:44:09.289Z,100799.04
2019-02-17T09:46:36.246Z,100789.73
2019-02-17T09:49:03.309Z,100791.45
2019-02-17T09:51:30.354Z,100794.00
2019-02-17T09:53:57.577Z,100795.27
2019-02-17T09:56:24.853Z,100789.73
2019-02-17T09:58:51.810Z,100785.52
2019-02-17T10:01:19.035Z,100786.78
2019-02-17T10:03:45.920Z,100779.56
2019-02-17T10:06:12.914Z,100782.97
2019-02-17T10:08:40.146Z,100780.42
2019-02-17T10:11:07.028Z,100780.84
2019-02-17T10:13:34.057Z,100778.73
2019-02-17T10:16:00.949Z,100773.23
2019-02-17T10:18:27.937Z,100778.73
2019-02-17T10:20:54.917Z,100775.78
2019-02-17T10:23:21.887Z,100774.09
2019-02-17T10:25:49.412Z,100778.73
2019-02-17T10:28:16.574Z,100765.59
2019-02-17T10:30:43.465Z,100771.09
2019-02-17T10:33:10.501Z,100757.95
2019-02-17T10:35:37.535Z,100760.06
2019-02-17T10:38:04.484Z,100758.79
2019-02-17T10:40:32.114Z,100754.96
2019-02-17T10:42:59.087Z,100758.79
2019-02-17T10:45:26.076Z,100755.81
2019-02-17T10:47:52.975Z,100756.20
2019-02-17T10:50:20.175Z,100751.11
2019-02-17T10:52:47.342Z,100747.76
2019-02-17T10:55:14.534Z,100740.52
2019-02-17T10:57:41.550Z,100738.42
2019-02-17T11:00:08.506Z,100739.23
2019-02-17T11:02:35.529Z,100735.81
2019-02-17T11:05:02.853Z,100731.98
2019-02-17T11:07:30.184Z,100728.58
2019-02-17T11:09:57.150Z,100727.75
2019-02-17T11:12:24.222Z,100720.09
2019-02-17T11:14:51.528Z,100715.37
2019-02-17T11:17:18.445Z,100710.30
2019-02-17T11:19:45.395Z,100711.55
2019-02-17T11:22:12.368Z,100702.18
2019-02-17T11:24:39.329Z,100698.35
2019-02-17T11:27:06.558Z,100686.47
2019-02-17T11:29:33.492Z,100687.31
2019-02-17T11:32:00.438Z,100680.92
2019-02-17T11:34:27.321Z,100681.31
2019-02-17T11:36:54.219Z,100671.14
2019-02-17T11:39:21.497Z,100675.75
2019-02-17T11:41:48.614Z,100667.67
2019-02-17T11:44:15.495Z,100672.33
2019-02-17T11:46:42.683Z,100671.03
2019-02-17T11:49:10.629Z,100670.58
2019-02-17T11:51:37.887Z,100669.27
2019-02-17T11:54:05.216Z,100659.48
2019-02-17T11:56:32.434Z,100659.53
2019-02-17T11:58:59.384Z,100658.69
2019-02-17T12:01:26.389Z,100652.73
2019-02-17T12:03:53.622Z,100646.78
2019-02-17T12:06:20.854Z,100648.47
2019-02-17T12:08:48.106Z,100647.61
2019-02-17T12:11:16.573Z,100647.16
2019-02-17T12:13:43.596Z,100650.53
2019-02-17T12:16:10.783Z,100644.55
2019-02-17T12:18:38.036Z,100641.98
2019-02-17T12:21:05.306Z,100637.28
2019-02-17T12:23:34.041Z,100635.58
2019-02-17T12:26:11.850Z,100634.71
2019-02-17T12:28:54.335Z,100635.05
2019-02-17T12:31:20.590Z,100632.47
2019-02-17T12:33:51.435Z,100633.24
2019-02-17T12:36:18.452Z,100629.34
2019-02-17T12:38:45.882Z,100630.58
2019-02-17T12:41:13.238Z,100624.17
2019-02-17T12:43:40.473Z,100622.42
2019-02-17T12:46:07.466Z,100618.16
2019-02-17T12:48:36.525Z,100615.57
2019-02-17T12:51:03.488Z,100613.02
2019-02-17T12:53:30.748Z,100613.80
2019-02-17T12:55:58.265Z,100604.02
2019-02-17T12:58:29.919Z,100604.41
2019-02-17T13:00:56.456Z,100606.51
2019-02-17T13:03:28.506Z,100607.33
2019-02-17T13:05:52.316Z,100606.89
2019-02-17T13:08:19.544Z,100605.98
2019-02-17T13:10:46.447Z,100605.55
2019-02-17T13:13:13.767Z,100600.85
2019-02-17T13:15:42.413Z,100599.13
2019-02-17T13:18:09.656Z,100592.31
2019-02-17T13:20:36.609Z,100595.69
2019-02-17T13:23:03.749Z,100589.73
2019-02-17T13:25:30.647Z,100586.29
2019-02-17T13:27:57.888Z,100580.28
2019-02-17T13:30:24.857Z,100581.55
2019-02-17T13:32:51.918Z,100573.51
2019-02-17T13:35:19.119Z,100574.38
2019-02-17T13:37:45.997Z,100578.61
2019-02-17T13:40:13.246Z,100576.08
2019-02-17T13:42:40.141Z,100571.77
2019-02-17T13:45:07.415Z,100572.09
2019-02-17T13:47:34.589Z,100573.73
2019-02-17T13:50:01.580Z,100569.86
2019-02-17T13:52:28.866Z,100572.37
2019-02-17T13:54:56.113Z,100567.67
2019-02-17T13:57:23.031Z,100570.19
2019-02-17T13:59:49.998Z,100566.75
2019-02-17T14:02:17.265Z,100560.77
2019-02-17T14:04:44.568Z,100565.03
2019-02-17T14:07:11.927Z,100559.48
2019-02-17T14:09:38.874Z,100562.48
2019-02-17T14:12:06.404Z,100558.20
2019-02-17T14:14:33.644Z,100554.81
2019-02-17T14:17:00.525Z,100550.94
2019-02-17T14:19:27.745Z,100548.69
2019-02-17T14:21:54.723Z,100548.23
2019-02-17T14:24:22.038Z,100549.06
2019-02-17T14:26:49.033Z,100551.58
2019-02-17T14:29:16.006Z,100553.25
2019-02-17T14:31:43.301Z,100552.36
2019-02-17T14:34:10.283Z,100548.09
2019-02-17T14:36:37.606Z,100548.92
2019-02-17T14:39:04.937Z,100550.62
2019-02-17T14:41:33.946Z,100548.87
2019-02-17T14:44:01.153Z,100544.64
2019-02-17T14:46:28.448Z,100541.66
2019-02-17T14:48:55.696Z,100538.20
2019-02-17T14:51:22.618Z,100537.34
2019-02-17T14:53:49.557Z,100533.54
2019-02-17T14:56:16.453Z,100531.91
2019-02-17T14:58:43.681Z,100531.08
2019-02-17T15:01:10.945Z,100533.59
2019-02-17T15:03:38.186Z,100525.13
2019-02-17T15:06:05.094Z,100524.72
2019-02-17T15:08:32.061Z,100523.07
2019-02-17T15:10:59.347Z,100520.97
2019-02-17T15:13:26.582Z,100518.81
2019-02-17T15:15:53.496Z,100516.63
2019-02-17T15:18:20.447Z,100505.09
2019-02-17T15:20:47.617Z,100507.19
2019-02-17T15:23:15.110Z,100505.41
2019-02-17T15:25:41.976Z,100511.45
2019-02-17T15:28:08.874Z,100505.05
2019-02-17T15:30:35.786Z,100509.31
2019-02-17T15:33:04.271Z,100503.38
2019-02-17T15:35:31.394Z,100494.48
2019-02-17T15:37:58.275Z,100491.03
2019-02-17T15:40:25.569Z,100492.70
2019-02-17T15:42:52.564Z,100491.83
2019-02-17T15:45:19.851Z,100486.69
2019-02-17T15:47:47.127Z,100481.16
2019-02-17T15:50:14.345Z,100474.87
2019-02-17T15:52:41.259Z,100478.28
2019-02-17T15:55:08.219Z,100475.75
2019-02-17T15:57:36.177Z,100477.41
2019-02-17T16:00:03.147Z,100477.08
2019-02-17T16:02:30.161Z,100471.59
2019-02-17T16:04:57.353Z,100469.14
2019-02-17T16:07:24.683Z,100472.20
2019-02-17T16:09:51.604Z,100475.68
2019-02-17T16:12:18.558Z,100467.64
2019-02-17T16:14:45.504Z,100471.06
2019-02-17T16:17:12.713Z,100471.12
2019-02-17T16:19:39.972Z,100480.10
2019-02-17T16:22:06.975Z,100479.70
2019-02-17T16:24:35.277Z,100478.45
2019-02-17T16:27:02.193Z,100475.89
2019-02-17T16:29:29.139Z,100476.31
2019-02-17T16:31:56.423Z,100477.17
2019-02-17T16:34:23.315Z,100480.15
2019-02-17T16:36:50.297Z,100483.50
2019-02-17T16:39:17.269Z,100487.77
2019-02-17T16:41:44.228Z,100484.41
2019-02-17T16:44:11.551Z,100484.48
2019-02-17T16:46:39.935Z,100482.38
2019-02-17T16:49:07.203Z,100484.98
2019-02-17T16:51:34.450Z,100487.15
2019-02-17T16:54:01.693Z,100485.09
2019-02-17T16:56:28.852Z,100486.42
2019-02-17T16:58:55.821Z,100489.06
2019-02-17T17:01:22.777Z,100488.75
2019-02-17T17:03:50.098Z,100492.20
2019-02-17T17:06:17.357Z,100487.15
2019-02-17T17:08:44.695Z,100490.18
2019-02-17T17:11:11.849Z,100493.65
2019-02-17T17:13:39.142Z,100489.42
2019-02-17T17:16:06.487Z,100488.17
2019-02-17T17:18:33.434Z,100490.34
2019-02-17T17:21:00.307Z,100489.95
2019-02-17T17:23:28.549Z,100493.38
2019-02-17T17:25:55.824Z,100487.43
2019-02-17T17:28:23.038Z,100489.15
2019-02-17T17:30:50.028Z,100492.61
2019-02-17T17:33:16.986Z,100489.27
2019-02-17T17:35:44.289Z,100485.88
2019-02-17T17:38:11.700Z,100485.09
2019-02-17T17:40:38.981Z,100480.01
2019-02-17T17:43:06.238Z,100483.05
2019-02-17T17:45:33.123Z,100482.21
2019-02-17T17:48:00.618Z,100482.22
2019-02-17T17:50:27.947Z,100483.54
2019-02-17T17:52:54.901Z,100489.09
2019-02-17T17:55:21.774Z,100492.09
2019-02-17T17:57:49.047Z,100489.19
2019-02-17T18:00:16.028Z,100490.05
2019-02-17T18:02:42.977Z,100488.41
2019-02-17T18:05:10.188Z,100492.69
2019-02-17T18:07:37.175Z,100493.14
2019-02-17T18:10:04.507Z,100490.64
2019-02-17T18:12:33.364Z,100493.24
2019-02-17T18:15:00.786Z,100491.56
2019-02-17T18:17:28.080Z,100490.31
2019-02-17T18:19:55.234Z,100492.48
2019-02-17T18:22:22.115Z,100491.64
2019-02-17T18:24:49.326Z,100491.23
2019-02-17T18:27:16.593Z,100490.80
2019-02-17T18:29:43.861Z,100493.39
2019-02-17T18:32:11.180Z,100489.17
2019-02-17T18:34:38.452Z,100490.94
2019-02-17T18:37:05.706Z,100495.61
2019-02-17T18:39:32.683Z,100501.14
2019-02-17T18:42:00.009Z,100497.80
2019-02-17T18:44:27.262Z,100500.38
2019-02-17T18:46:54.225Z,100502.08
2019-02-17T18:49:21.556Z,100497.41
2019-02-17T18:51:48.586Z,100498.27
2019-02-17T18:54:15.591Z,100494.02
2019-02-17T18:56:43.303Z,100499.95
2019-02-17T18:59:10.865Z,100493.63
2019-02-17T19:01:37.890Z,100497.91
2019-02-17T19:04:04.785Z,100498.41
2019-02-17T19:06:32.030Z,100499.27
2019-02-17T19:08:59.401Z,100498.86
2019-02-17T19:11:27.774Z,100497.17
2019-02-17T19:13:55.003Z,100491.23
2019-02-17T19:16:21.969Z,100491.64
2019-02-17T19:18:49.325Z,100488.70
2019-02-17T19:21:16.213Z,100487.02
2019-02-17T19:23:44.154Z,100484.48
2019-02-17T19:26:11.092Z,100487.47
2019-02-17T19:28:38.030Z,100491.30
2019-02-17T19:31:04.924Z,100487.92
2019-02-17T19:33:32.212Z,100490.07
2019-02-17T19:35:59.374Z,100489.66
2019-02-17T19:38:26.350Z,100486.71
2019-02-17T19:40:53.573Z,100484.17
2019-02-17T19:43:20.522Z,100486.30
2019-02-17T19:45:47.446Z,100482.05
2019-02-17T19:48:14.434Z,100490.54
2019-02-17T19:50:41.382Z,100493.09
2019-02-17T19:53:08.599Z,100482.94
2019-02-17T19:55:35.554Z,100489.70
2019-02-17T19:58:02.817Z,100478.27
2019-02-17T20:00:30.196Z,100479.55
2019-02-17T20:02:57.148Z,100488.47
2019-02-17T20:05:24.126Z,100485.48
2019-02-17T20:07:52.791Z,100491.03
2019-02-17T20:10:20.160Z,100499.50
2019-02-17T20:12:47.397Z,100494.84
2019-02-17T20:15:14.761Z,100502.47
2019-02-17T20:17:42.060Z,100492.73
2019-02-17T20:20:09.029Z,100491.44
2019-02-17T20:22:36.243Z,100488.07
2019-02-17T20:25:03.486Z,100485.53
2019-02-17T20:27:30.769Z,100492.31
2019-02-17T20:29:57.735Z,100492.32
2019-02-17T20:32:24.696Z,100494.01
2019-02-17T20:34:52.016Z,100487.25
2019-02-17T20:37:18.941Z,100491.48
2019-02-17T20:39:45.831Z,100493.59
2019-02-17T20:42:14.088Z,100485.98
2019-02-17T20:44:41.065Z,100487.25
2019-02-17T20:47:08.141Z,100485.58
2019-02-17T20:49:35.515Z,100480.92
2019-02-17T20:52:02.448Z,100480.48
2019-02-17T20:54:30.410Z,100476.69
2019-02-17T20:56:57.826Z,100480.91
2019-02-17T20:59:24.877Z,100476.69
2019-02-17T21:01:52.082Z,100477.11
2019-02-17T21:04:19.874Z,100479.65
2019-02-17T21:06:46.827Z,100477.11
2019-02-17T21:09:13.804Z,100473.30
2019-02-17T21:11:41.509Z,100472.45
2019-02-17T21:14:08.473Z,100475.41
2019-02-17T21:16:38.111Z,100473.73
2019-02-17T21:19:05.119Z,100471.19
2019-02-17T21:21:32.379Z,100478.77
2019-02-17T21:23:59.608Z,100478.36
2019-02-17T21:26:26.871Z,100479.62
2019-02-17T21:28:53.845Z,100477.09
2019-02-17T21:31:21.192Z,100480.04
2019-02-17T21:33:48.154Z,100476.23
2019-02-17T21:36:22.774Z,100477.95
2019-02-17T21:38:43.620Z,100471.57
2019-02-17T21:41:10.550Z,100469.03
2019-02-17T21:43:37.519Z,100471.13
2019-02-17T21:46:04.501Z,100465.60
2019-02-17T21:48:31.438Z,100471.94
2019-02-17T21:50:58.677Z,100466.86
2019-02-17T21:53:26.249Z,100465.98
2019-02-17T21:55:53.257Z,100466.83
2019-02-17T21:58:20.553Z,100464.69
2019-02-17T22:00:47.857Z,100466.77
2019-02-17T22:03:14.721Z,100468.03
2019-02-17T22:05:41.593Z,100467.16
2019-02-17T22:08:08.843Z,100463.38
2019-02-17T22:10:36.096Z,100465.50
2019-02-17T22:13:03.063Z,100461.72
2019-02-17T22:15:30.606Z,100452.44
2019-02-17T22:17:57.584Z,100452.03
2019-02-17T22:20:24.532Z,100444.44
2019-02-17T22:22:51.757Z,100453.31
2019-02-17T22:25:18.649Z,100459.24
2019-02-17T22:27:45.937Z,100452.91
2019-02-17T22:30:13.214Z,100451.64
2019-02-17T22:32:42.991Z,100452.91
2019-02-17T22:35:10.631Z,100453.31
2019-02-17T22:37:37.614Z,100455.03
2019-02-17T22:40:04.890Z,100461.38
2019-02-17T22:42:32.255Z,100458.84
2019-02-17T22:44:59.603Z,100460.11
2019-02-17T22:47:26.550Z,100463.47
2019-02-17T22:49:53.501Z,100457.57
2019-02-17T22:52:20.732Z,100459.25
2019-02-17T22:54:47.686Z,100465.59
2019-02-17T22:57:15.745Z,100462.19
2019-02-17T22:59:42.700Z,100470.20
2019-02-17T23:02:11.887Z,100466.39
2019-02-17T23:04:40.051Z,100471.05
2019-02-17T23:07:08.113Z,100469.38
2019-02-17T23:09:35.081Z,100463.86
2019-02-17T23:12:02.036Z,100468.92
2019-02-17T23:14:29.074Z,100471.91
2019-02-17T23:16:56.042Z,100476.98
2019-02-17T23:19:22.925Z,100471.45
2019-02-17T23:21:49.886Z,100471.45
2019-02-17T23:24:16.848Z,100473.59
2019-02-17T23:26:43.858Z,100470.19
2019-02-17T23:29:10.797Z,100463.44
2019-02-17T23:31:37.704Z,100470.59
2019-02-17T23:34:04.668Z,100471.45
2019-02-17T23:36:31.990Z,100471.03
2019-02-17T23:38:59.256Z,100471.86
2019-02-17T23:41:26.490Z,100471.85
2019-02-17T23:43:53.370Z,100466.77
2019-02-17T23:46:20.343Z,100473.97
2019-02-17T23:48:47.643Z,100471.86
2019-02-17T23:51:14.873Z,100472.71
2019-02-17T23:53:42.025Z,100473.10
2019-02-17T23:56:09.177Z,100476.03
2019-02-17T23:58:36.093Z,100475.56
